Sunday, October 21, 2018, 6:14 AM EDT
Back to Local

KHFD, Hartford-brainard Airport

Location: Hartford, CT, United States Lat: 41.733
Local Time: 6:14 AM EDT (10:14 GMT) Lon: -72.65
Time Zone: US/Eastern Elev: 19 ft

Show me the last for .
Show Decoded

2018-10-21 05:53 METAR KHFD 210953Z 34006KT 10SM SCT042 OVC060 09/04 A2966 RMK AO2 RAB04E17
                 SLP043 P0000 T00890039 =
2018-10-21 04:53 METAR KHFD 210853Z AUTO 34008KT 10SM OVC055 09/04 A2962 RMK AO2 SLP031 60001
                 T00890044 53007 =
2018-10-21 03:53 METAR KHFD 210753Z AUTO 35005KT 10SM OVC055 09/05 A2960 RMK AO2 SLP022 T00890050
                 =
2018-10-21 02:53 METAR KHFD 210653Z AUTO 36005KT 10SM BKN046 OVC060 09/06 A2959 RMK AO2 RAE17
                 SLP020 P0001 T00940061 =
2018-10-21 01:53 METAR KHFD 210553Z AUTO 31003KT 5SM RA BR FEW035 BKN048 OVC060 09/07 A2960 RMK
                 AO2 RAB29 SLP023 P0003 60006 T00940072 10106 20089 55005 =
2018-10-21 00:53 METAR KHFD 210453Z AUTO 00000KT 10SM BKN060 OVC090 10/09 A2959 RMK AO2 RAE17
                 SLP020 P0003 T01000089 401720089 =
2018-10-20 23:53 METAR KHFD 210353Z 00000KT 8SM -RA SCT060 OVC080 10/08 A2961 RMK AO2 RAB50
                 SLP028 P0000 T01000083 =
2018-10-20 22:53 METAR KHFD 210253Z 00000KT 10SM BKN065 OVC085 09/08 A2962 RMK AO2 SLP029
                 T00940078 53005 =
2018-10-20 21:53 METAR KHFD 210153Z 17004KT 10SM FEW070 OVC085 10/08 A2961 RMK AO2 SLP026
                 T01000078 =
2018-10-20 20:53 METAR KHFD 210053Z 00000KT 10SM BKN070 OVC090 10/08 A2960 RMK AO2 SLP024
                 T01000078 =
2018-10-20 19:53 METAR KHFD 202353Z 00000KT 10SM CLR 09/07 A2960 RMK AO2 SLP023 T00940072 10172
                 20089 51008 =
2018-10-20 18:53 METAR KHFD 202253Z 00000KT 10SM FEW085 12/07 A2960 RMK AO2 SLP024 T01220067 =
2018-10-20 17:53 METAR KHFD 202153Z 32008KT 10SM FEW045 BKN055 OVC080 13/06 A2959 RMK AO2 WSHFT
                 2112 SLP020 T01330061 =
2018-10-20 17:32 METAR KHFD 202132Z 31005KT 10SM SCT045 BKN055 14/06 A2959 RMK AO2 WSHFT 2112
                 T01390061 =
2018-10-20 16:53 METAR KHFD 202053Z 27003KT 10SM OVC085 17/07 A2958 RMK AO2 SLP015 T01670072
                 56015 =
2018-10-20 15:53 METAR KHFD 201953Z 25008KT 10SM BKN080 17/07 A2959 RMK AO2 SLP019 T01720067 =
2018-10-20 14:53 METAR KHFD 201853Z 26007KT 10SM BKN070 17/07 A2960 RMK AO2 SLP022 T01670072 =
2018-10-20 13:53 METAR KHFD 201753Z 24011G16KT 10SM BKN042 OVC050 17/08 A2962 RMK AO2 SLP030
                 T01670078 10172 20122 58014 =
2018-10-20 12:53 METAR KHFD 201653Z 27007KT 10SM BKN030 BKN043 17/08 A2964 RMK AO2 SLP037
                 T01670083 =
2018-10-20 11:53 METAR KHFD 201553Z 21008KT 10SM FEW036 16/09 A2966 RMK AO2 SLP043 T01560089 =
2018-10-20 10:53 METAR KHFD 201453Z 26009G22KT 10SM BKN025 BKN031 14/09 A2969 RMK AO2 SLP053
                 T01440089 58008 =
2018-10-20 10:00 METAR KHFD 201400Z 23009KT 10SM SCT020 BKN075 14/09 A2969 RMK AO2 T01390094 =
2018-10-20 09:53 METAR KHFD 201353Z 23009G18KT 10SM BKN022 BKN065 OVC080 14/09 A2969 RMK AO2
                 SLP054 T01390094 =
2018-10-20 08:53 METAR KHFD 201253Z 21008KT 10SM BKN022 OVC065 13/10 A2971 RMK AO2 SLP061
                 T01280100 =
2018-10-20 08:03 METAR KHFD 201203Z 19009KT 10SM BKN020 BKN027 OVC046 12/10 A2971 RMK AO2
                 T01220100 =
2018-10-20 07:53 METAR KHFD 201153Z 18010KT 10SM FEW020 SCT028 OVC046 13/09 A2971 RMK AO2 SLP061
                 60001 70001 T01280094 10139 20122 55010 =
2018-10-20 06:53 METAR KHFD 201053Z 20010G16KT 170V230 10SM OVC060 12/09 A2971 RMK AO2 SLP060
                 T01220094 =

Support USWX by starting your Amazon purchase here.